Calamus, Iowa
Current Conditions -  °F | °C
As of 3:01 AM on Thursday 27 Nov 2014 (Local Time) from KDVN Reporting Station
Broken Clouds Broken Clouds  
Wind Chill: 11°   Ceiling: 1600
Heat Index: 23°   Visibility: 8mi
Dew Point: 19°   Wind: 13mph
Humidity: 85%   Direction: 310°NW
Pressure: 30.32"   Gusts: NA
Location:  41.83°N, 90.76°W
Report Text: KDVN 270901Z AUTO 31011KT 8SM BKN016 M05/M07 A3032 RMK AO2 T10501072
Loading
Personal Weather Stations






























Interactive Weather Map New forecast layout! Learn more

10-Day Weather Forecast

Advertisements
Track Severe Weather on mobile